sensor_id;sensor_type;location;lat;lon;timestamp;temperature;humidity
41722;DHT22;27407;24.142;-110.310;2023-10-31T00:05:02;29.90;99.90
41722;DHT22;27407;24.142;-110.310;2023-10-31T00:13:17;29.30;99.90
41722;DHT22;27407;24.142;-110.310;2023-10-31T00:16:16;29.30;99.90
41722;DHT22;27407;24.142;-110.310;2023-10-31T00:19:05;29.10;99.90
41722;DHT22;27407;24.142;-110.310;2023-10-31T00:21:37;28.90;99.90
41722;DHT22;27407;24.142;-110.310;2023-10-31T00:24:34;28.80;99.90
41722;DHT22;27407;24.142;-110.310;2023-10-31T00:33:44;28.40;99.90
41722;DHT22;27407;24.142;-110.310;2023-10-31T00:36:30;28.40;99.90
41722;DHT22;27407;24.142;-110.310;2023-10-31T00:39:03;28.30;99.90
41722;DHT22;27407;24.142;-110.310;2023-10-31T00:41:44;28.20;99.90
41722;DHT22;27407;24.142;-110.310;2023-10-31T00:44:16;28.00;99.90
41722;DHT22;27407;24.142;-110.310;2023-10-31T00:46:46;27.80;99.90
41722;DHT22;27407;24.142;-110.310;2023-10-31T00:49:17;28.00;99.90
41722;DHT22;27407;24.142;-110.310;2023-10-31T00:51:44;27.80;99.90
41722;DHT22;27407;24.142;-110.310;2023-10-31T00:54:13;27.80;99.90
41722;DHT22;27407;24.142;-110.310;2023-10-31T00:56:45;27.70;99.90
41722;DHT22;27407;24.142;-110.310;2023-10-31T00:59:12;27.70;99.90
41722;DHT22;27407;24.142;-110.310;2023-10-31T01:01:42;27.60;99.90
41722;DHT22;27407;24.142;-110.310;2023-10-31T01:04:10;27.60;99.90
41722;DHT22;27407;24.142;-110.310;2023-10-31T01:06:43;27.60;99.90
41722;DHT22;27407;24.142;-110.310;2023-10-31T01:09:12;27.60;99.90
41722;DHT22;27407;24.142;-110.310;2023-10-31T01:11:39;27.70;99.90
41722;DHT22;27407;24.142;-110.310;2023-10-31T01:14:06;27.50;99.90
41722;DHT22;27407;24.142;-110.310;2023-10-31T01:16:32;27.30;99.90
41722;DHT22;27407;24.142;-110.310;2023-10-31T01:19:04;27.20;99.90
41722;DHT22;27407;24.142;-110.310;2023-10-31T01:21:32;27.20;99.90
41722;DHT22;27407;24.142;-110.310;2023-10-31T01:23:59;27.20;99.90
41722;DHT22;27407;24.142;-110.310;2023-10-31T01:26:26;27.30;99.90
41722;DHT22;27407;24.142;-110.310;2023-10-31T01:28:53;27.20;99.90
41722;DHT22;27407;24.142;-110.310;2023-10-31T01:31:19;27.10;99.90
41722;DHT22;27407;24.142;-110.310;2023-10-31T01:33:46;27.10;99.90
41722;DHT22;27407;24.142;-110.310;2023-10-31T01:36:13;27.10;99.90
41722;DHT22;27407;24.142;-110.310;2023-10-31T01:38:40;27.10;99.90
41722;DHT22;27407;24.142;-110.310;2023-10-31T01:41:07;27.00;99.90
41722;DHT22;27407;24.142;-110.310;2023-10-31T01:43:36;27.00;99.90
41722;DHT22;27407;24.142;-110.310;2023-10-31T01:46:03;27.00;99.90
41722;DHT22;27407;24.142;-110.310;2023-10-31T01:48:31;27.00;99.90
41722;DHT22;27407;24.142;-110.310;2023-10-31T01:50:59;27.00;99.90
41722;DHT22;27407;24.142;-110.310;2023-10-31T01:53:28;26.80;99.90
41722;DHT22;27407;24.142;-110.310;2023-10-31T01:55:56;26.80;99.90
41722;DHT22;27407;24.142;-110.310;2023-10-31T01:58:31;26.80;99.90
41722;DHT22;27407;24.142;-110.310;2023-10-31T02:00:59;26.80;99.90
41722;DHT22;27407;24.142;-110.310;2023-10-31T02:03:27;26.70;99.90
41722;DHT22;27407;24.142;-110.310;2023-10-31T02:05:54;26.70;99.90
41722;DHT22;27407;24.142;-110.310;2023-10-31T02:08:21;26.70;99.90
41722;DHT22;27407;24.142;-110.310;2023-10-31T02:10:48;26.60;99.90
41722;DHT22;27407;24.142;-110.310;2023-10-31T02:13:16;26.60;99.90
41722;DHT22;27407;24.142;-110.310;2023-10-31T02:15:43;26.60;99.90
41722;DHT22;27407;24.142;-110.310;2023-10-31T02:18:10;26.60;99.90
41722;DHT22;27407;24.142;-110.310;2023-10-31T02:20:37;26.60;99.90
41722;DHT22;27407;24.142;-110.310;2023-10-31T02:23:04;26.70;99.90
41722;DHT22;27407;24.142;-110.310;2023-10-31T02:25:31;26.50;99.90
41722;DHT22;27407;24.142;-110.310;2023-10-31T02:27:58;26.60;99.90
41722;DHT22;27407;24.142;-110.310;2023-10-31T02:30:25;26.50;99.90
41722;DHT22;27407;24.142;-110.310;2023-10-31T02:32:51;26.50;99.90
41722;DHT22;27407;24.142;-110.310;2023-10-31T02:35:18;26.50;99.90
41722;DHT22;27407;24.142;-110.310;2023-10-31T02:37:46;26.40;99.90
41722;DHT22;27407;24.142;-110.310;2023-10-31T02:40:13;26.40;99.90
41722;DHT22;27407;24.142;-110.310;2023-10-31T02:42:40;26.40;99.90
41722;DHT22;27407;24.142;-110.310;2023-10-31T02:45:07;26.40;99.90
41722;DHT22;27407;24.142;-110.310;2023-10-31T02:47:34;26.40;99.90
41722;DHT22;27407;24.142;-110.310;2023-10-31T02:50:00;26.30;99.90
41722;DHT22;27407;24.142;-110.310;2023-10-31T02:52:27;26.30;99.90
41722;DHT22;27407;24.142;-110.310;2023-10-31T02:54:54;26.30;99.90
41722;DHT22;27407;24.142;-110.310;2023-10-31T02:57:20;26.30;99.90
41722;DHT22;27407;24.142;-110.310;2023-10-31T02:59:47;26.30;99.90
41722;DHT22;27407;24.142;-110.310;2023-10-31T03:02:13;26.20;99.90
41722;DHT22;27407;24.142;-110.310;2023-10-31T03:04:40;26.20;99.90
41722;DHT22;27407;24.142;-110.310;2023-10-31T03:07:07;26.20;99.90
41722;DHT22;27407;24.142;-110.310;2023-10-31T03:09:33;26.10;99.90
41722;DHT22;27407;24.142;-110.310;2023-10-31T03:12:00;26.00;99.90
41722;DHT22;27407;24.142;-110.310;2023-10-31T03:14:27;26.00;99.90
41722;DHT22;27407;24.142;-110.310;2023-10-31T03:16:54;25.90;99.90
41722;DHT22;27407;24.142;-110.310;2023-10-31T03:19:20;25.90;99.90
41722;DHT22;27407;24.142;-110.310;2023-10-31T03:21:47;25.90;99.90
41722;DHT22;27407;24.142;-110.310;2023-10-31T03:24:13;25.80;99.90
41722;DHT22;27407;24.142;-110.310;2023-10-31T03:26:43;25.80;99.90
41722;DHT22;27407;24.142;-110.310;2023-10-31T03:29:09;25.70;99.90
41722;DHT22;27407;24.142;-110.310;2023-10-31T03:31:36;25.70;99.90
41722;DHT22;27407;24.142;-110.310;2023-10-31T03:34:03;25.70;99.90
41722;DHT22;27407;24.142;-110.310;2023-10-31T03:36:29;25.70;99.90
41722;DHT22;27407;24.142;-110.310;2023-10-31T03:38:56;25.60;99.90
41722;DHT22;27407;24.142;-110.310;2023-10-31T03:41:23;25.60;99.90
41722;DHT22;27407;24.142;-110.310;2023-10-31T03:43:49;25.60;99.90
41722;DHT22;27407;24.142;-110.310;2023-10-31T03:46:16;25.60;99.90
41722;DHT22;27407;24.142;-110.310;2023-10-31T03:48:43;25.60;99.90
41722;DHT22;27407;24.142;-110.310;2023-10-31T03:51:09;25.60;99.90
41722;DHT22;27407;24.142;-110.310;2023-10-31T03:53:36;25.50;99.90
41722;DHT22;27407;24.142;-110.310;2023-10-31T03:56:03;25.50;99.90
41722;DHT22;27407;24.142;-110.310;2023-10-31T03:58:29;25.40;99.90
41722;DHT22;27407;24.142;-110.310;2023-10-31T04:00:56;25.40;99.90
41722;DHT22;27407;24.142;-110.310;2023-10-31T04:03:23;25.40;99.90
41722;DHT22;27407;24.142;-110.310;2023-10-31T04:05:49;25.40;99.90
41722;DHT22;27407;24.142;-110.310;2023-10-31T04:08:16;25.40;99.90
41722;DHT22;27407;24.142;-110.310;2023-10-31T04:10:42;25.30;99.90
41722;DHT22;27407;24.142;-110.310;2023-10-31T04:13:09;25.30;99.90
41722;DHT22;27407;24.142;-110.310;2023-10-31T04:15:36;25.20;99.90
41722;DHT22;27407;24.142;-110.310;2023-10-31T04:18:03;25.20;99.90
41722;DHT22;27407;24.142;-110.310;2023-10-31T04:20:29;25.20;99.90
41722;DHT22;27407;24.142;-110.310;2023-10-31T04:22:56;25.20;99.90
41722;DHT22;27407;24.142;-110.310;2023-10-31T04:25:23;25.20;99.90
41722;DHT22;27407;24.142;-110.310;2023-10-31T04:27:50;25.10;99.90
41722;DHT22;27407;24.142;-110.310;2023-10-31T04:30:16;25.10;99.90
41722;DHT22;27407;24.142;-110.310;2023-10-31T04:32:43;25.10;99.90
41722;DHT22;27407;24.142;-110.310;2023-10-31T04:35:09;25.10;99.90
41722;DHT22;27407;24.142;-110.310;2023-10-31T04:37:36;25.10;99.90
41722;DHT22;27407;24.142;-110.310;2023-10-31T04:40:03;25.10;99.90
41722;DHT22;27407;24.142;-110.310;2023-10-31T04:42:32;25.10;99.90
41722;DHT22;27407;24.142;-110.310;2023-10-31T04:45:02;25.10;99.90
41722;DHT22;27407;24.142;-110.310;2023-10-31T04:47:28;25.10;99.90
41722;DHT22;27407;24.142;-110.310;2023-10-31T04:49:55;25.10;99.90
41722;DHT22;27407;24.142;-110.310;2023-10-31T04:52:22;25.00;99.90
41722;DHT22;27407;24.142;-110.310;2023-10-31T04:54:48;25.00;99.90
41722;DHT22;27407;24.142;-110.310;2023-10-31T04:57:15;25.10;99.90
41722;DHT22;27407;24.142;-110.310;2023-10-31T04:59:42;25.00;99.90
41722;DHT22;27407;24.142;-110.310;2023-10-31T05:02:08;25.00;99.90
41722;DHT22;27407;24.142;-110.310;2023-10-31T05:04:38;25.00;99.90
41722;DHT22;27407;24.142;-110.310;2023-10-31T05:07:06;25.00;99.90
41722;DHT22;27407;24.142;-110.310;2023-10-31T05:09:32;25.00;99.90
41722;DHT22;27407;24.142;-110.310;2023-10-31T05:11:59;25.00;99.90
41722;DHT22;27407;24.142;-110.310;2023-10-31T05:14:26;25.00;99.90
41722;DHT22;27407;24.142;-110.310;2023-10-31T05:16:52;25.00;99.90
41722;DHT22;27407;24.142;-110.310;2023-10-31T05:19:19;24.90;99.90
41722;DHT22;27407;24.142;-110.310;2023-10-31T05:21:46;24.80;99.90
41722;DHT22;27407;24.142;-110.310;2023-10-31T05:24:12;24.80;99.90
41722;DHT22;27407;24.142;-110.310;2023-10-31T05:26:40;24.80;99.90
41722;DHT22;27407;24.142;-110.310;2023-10-31T05:29:09;24.80;99.90
41722;DHT22;27407;24.142;-110.310;2023-10-31T05:31:36;24.80;99.90
41722;DHT22;27407;24.142;-110.310;2023-10-31T05:34:03;24.80;99.90
41722;DHT22;27407;24.142;-110.310;2023-10-31T05:36:30;24.80;99.90
41722;DHT22;27407;24.142;-110.310;2023-10-31T05:38:57;24.80;99.90
41722;DHT22;27407;24.142;-110.310;2023-10-31T05:41:23;24.70;99.90
41722;DHT22;27407;24.142;-110.310;2023-10-31T05:43:50;24.70;99.90
41722;DHT22;27407;24.142;-110.310;2023-10-31T05:46:17;24.60;99.90
41722;DHT22;27407;24.142;-110.310;2023-10-31T05:48:47;24.60;99.90
41722;DHT22;27407;24.142;-110.310;2023-10-31T05:51:15;24.60;99.90
41722;DHT22;27407;24.142;-110.310;2023-10-31T05:53:45;24.60;99.90
41722;DHT22;27407;24.142;-110.310;2023-10-31T05:56:15;24.60;99.90
41722;DHT22;27407;24.142;-110.310;2023-10-31T05:58:42;24.50;99.90
41722;DHT22;27407;24.142;-110.310;2023-10-31T06:01:09;24.50;99.90
41722;DHT22;27407;24.142;-110.310;2023-10-31T06:03:36;24.50;99.90
41722;DHT22;27407;24.142;-110.310;2023-10-31T06:06:03;24.50;99.90
41722;DHT22;27407;24.142;-110.310;2023-10-31T06:08:29;24.50;99.90
41722;DHT22;27407;24.142;-110.310;2023-10-31T06:10:57;24.50;99.90
41722;DHT22;27407;24.142;-110.310;2023-10-31T06:13:24;24.50;99.90
41722;DHT22;27407;24.142;-110.310;2023-10-31T06:15:54;24.50;99.90
41722;DHT22;27407;24.142;-110.310;2023-10-31T06:18:21;24.50;99.90
41722;DHT22;27407;24.142;-110.310;2023-10-31T06:20:48;24.50;99.90
41722;DHT22;27407;24.142;-110.310;2023-10-31T06:23:14;24.50;99.90
41722;DHT22;27407;24.142;-110.310;2023-10-31T06:25:41;24.50;99.90
41722;DHT22;27407;24.142;-110.310;2023-10-31T06:28:08;24.50;99.90
41722;DHT22;27407;24.142;-110.310;2023-10-31T06:30:34;24.50;99.90
41722;DHT22;27407;24.142;-110.310;2023-10-31T06:33:01;24.40;99.90
41722;DHT22;27407;24.142;-110.310;2023-10-31T06:35:28;24.40;99.90
41722;DHT22;27407;24.142;-110.310;2023-10-31T06:37:56;24.50;99.90
41722;DHT22;27407;24.142;-110.310;2023-10-31T06:40:26;24.40;99.90
41722;DHT22;27407;24.142;-110.310;2023-10-31T06:42:52;24.40;99.90
41722;DHT22;27407;24.142;-110.310;2023-10-31T06:45:19;24.40;99.90
41722;DHT22;27407;24.142;-110.310;2023-10-31T06:47:46;24.40;99.90
41722;DHT22;27407;24.142;-110.310;2023-10-31T06:50:13;24.40;99.90
41722;DHT22;27407;24.142;-110.310;2023-10-31T06:52:39;24.40;99.90
41722;DHT22;27407;24.142;-110.310;2023-10-31T06:55:06;24.40;99.90
41722;DHT22;27407;24.142;-110.310;2023-10-31T06:57:33;24.40;99.90
41722;DHT22;27407;24.142;-110.310;2023-10-31T07:00:00;24.30;99.90
41722;DHT22;27407;24.142;-110.310;2023-10-31T07:02:26;24.20;99.90
41722;DHT22;27407;24.142;-110.310;2023-10-31T07:04:53;24.20;99.90
41722;DHT22;27407;24.142;-110.310;2023-10-31T07:07:19;24.20;99.90
41722;DHT22;27407;24.142;-110.310;2023-10-31T07:09:46;24.20;99.90
41722;DHT22;27407;24.142;-110.310;2023-10-31T07:12:13;24.20;99.90
41722;DHT22;27407;24.142;-110.310;2023-10-31T07:14:39;24.20;99.90
41722;DHT22;27407;24.142;-110.310;2023-10-31T07:17:06;24.20;99.90
41722;DHT22;27407;24.142;-110.310;2023-10-31T07:19:32;24.10;99.90
41722;DHT22;27407;24.142;-110.310;2023-10-31T07:21:59;24.10;99.90
41722;DHT22;27407;24.142;-110.310;2023-10-31T07:24:25;24.10;99.90
41722;DHT22;27407;24.142;-110.310;2023-10-31T07:26:54;24.00;99.90
41722;DHT22;27407;24.142;-110.310;2023-10-31T07:29:21;24.00;99.90
41722;DHT22;27407;24.142;-110.310;2023-10-31T07:31:47;24.00;99.90
41722;DHT22;27407;24.142;-110.310;2023-10-31T07:34:14;24.00;99.90
41722;DHT22;27407;24.142;-110.310;2023-10-31T07:36:41;24.00;99.90
41722;DHT22;27407;24.142;-110.310;2023-10-31T07:39:08;24.00;99.90
41722;DHT22;27407;24.142;-110.310;2023-10-31T07:41:35;23.90;99.90
41722;DHT22;27407;24.142;-110.310;2023-10-31T07:44:01;23.90;99.90
41722;DHT22;27407;24.142;-110.310;2023-10-31T07:46:28;23.90;99.90
41722;DHT22;27407;24.142;-110.310;2023-10-31T07:48:54;23.90;99.90
41722;DHT22;27407;24.142;-110.310;2023-10-31T07:51:21;23.90;99.90
41722;DHT22;27407;24.142;-110.310;2023-10-31T07:53:47;23.80;99.90
41722;DHT22;27407;24.142;-110.310;2023-10-31T07:56:18;23.90;99.90
41722;DHT22;27407;24.142;-110.310;2023-10-31T07:58:51;23.90;99.90
41722;DHT22;27407;24.142;-110.310;2023-10-31T08:01:19;23.80;99.90
41722;DHT22;27407;24.142;-110.310;2023-10-31T08:03:48;23.80;99.90
41722;DHT22;27407;24.142;-110.310;2023-10-31T08:06:14;23.80;99.90
41722;DHT22;27407;24.142;-110.310;2023-10-31T08:08:41;23.70;99.90
41722;DHT22;27407;24.142;-110.310;2023-10-31T08:11:09;23.70;99.90
41722;DHT22;27407;24.142;-110.310;2023-10-31T08:13:39;23.70;99.90
41722;DHT22;27407;24.142;-110.310;2023-10-31T08:16:06;23.70;99.90
41722;DHT22;27407;24.142;-110.310;2023-10-31T08:18:34;23.60;99.90
41722;DHT22;27407;24.142;-110.310;2023-10-31T08:21:00;23.50;99.90
41722;DHT22;27407;24.142;-110.310;2023-10-31T08:23:28;23.40;99.90
41722;DHT22;27407;24.142;-110.310;2023-10-31T08:25:56;23.30;99.90
41722;DHT22;27407;24.142;-110.310;2023-10-31T08:28:22;23.20;99.90
41722;DHT22;27407;24.142;-110.310;2023-10-31T08:30:50;23.20;99.90
41722;DHT22;27407;24.142;-110.310;2023-10-31T08:33:16;23.20;99.90
41722;DHT22;27407;24.142;-110.310;2023-10-31T08:35:44;23.10;99.90
41722;DHT22;27407;24.142;-110.310;2023-10-31T08:38:10;23.10;99.90
41722;DHT22;27407;24.142;-110.310;2023-10-31T08:40:37;23.10;99.90
41722;DHT22;27407;24.142;-110.310;2023-10-31T08:43:04;23.10;99.90
41722;DHT22;27407;24.142;-110.310;2023-10-31T08:45:33;23.00;99.90
41722;DHT22;27407;24.142;-110.310;2023-10-31T08:48:00;23.00;99.90
41722;DHT22;27407;24.142;-110.310;2023-10-31T08:50:27;23.00;99.90
41722;DHT22;27407;24.142;-110.310;2023-10-31T08:52:53;23.00;99.90
41722;DHT22;27407;24.142;-110.310;2023-10-31T08:55:20;23.00;99.90
41722;DHT22;27407;24.142;-110.310;2023-10-31T08:57:47;23.00;99.90
41722;DHT22;27407;24.142;-110.310;2023-10-31T09:00:13;23.00;99.90
41722;DHT22;27407;24.142;-110.310;2023-10-31T09:02:40;23.00;99.90
41722;DHT22;27407;24.142;-110.310;2023-10-31T09:05:07;23.00;99.90
41722;DHT22;27407;24.142;-110.310;2023-10-31T09:07:34;23.00;99.90
41722;DHT22;27407;24.142;-110.310;2023-10-31T09:10:01;23.00;99.90
41722;DHT22;27407;24.142;-110.310;2023-10-31T09:12:27;23.00;99.90
41722;DHT22;27407;24.142;-110.310;2023-10-31T09:14:54;23.00;99.90
41722;DHT22;27407;24.142;-110.310;2023-10-31T09:17:20;22.90;99.90
41722;DHT22;27407;24.142;-110.310;2023-10-31T09:19:47;22.90;99.90
41722;DHT22;27407;24.142;-110.310;2023-10-31T09:22:13;22.90;99.90
41722;DHT22;27407;24.142;-110.310;2023-10-31T09:24:40;23.00;99.90
41722;DHT22;27407;24.142;-110.310;2023-10-31T09:27:07;23.00;99.90
41722;DHT22;27407;24.142;-110.310;2023-10-31T09:29:33;23.00;99.90
41722;DHT22;27407;24.142;-110.310;2023-10-31T09:32:00;23.00;99.90
41722;DHT22;27407;24.142;-110.310;2023-10-31T09:34:26;23.00;99.90
41722;DHT22;27407;24.142;-110.310;2023-10-31T09:36:53;23.00;99.90
41722;DHT22;27407;24.142;-110.310;2023-10-31T09:39:20;23.00;99.90
41722;DHT22;27407;24.142;-110.310;2023-10-31T09:41:48;23.10;99.90
41722;DHT22;27407;24.142;-110.310;2023-10-31T09:44:15;23.10;99.90
41722;DHT22;27407;24.142;-110.310;2023-10-31T09:46:42;23.10;99.90
41722;DHT22;27407;24.142;-110.310;2023-10-31T09:49:09;23.10;99.90
41722;DHT22;27407;24.142;-110.310;2023-10-31T09:51:38;23.10;99.90
41722;DHT22;27407;24.142;-110.310;2023-10-31T09:54:06;23.10;99.90
41722;DHT22;27407;24.142;-110.310;2023-10-31T09:56:34;23.10;99.90
41722;DHT22;27407;24.142;-110.310;2023-10-31T09:59:04;23.10;99.90
41722;DHT22;27407;24.142;-110.310;2023-10-31T10:01:31;23.10;99.90
41722;DHT22;27407;24.142;-110.310;2023-10-31T10:03:57;23.10;99.90
41722;DHT22;27407;24.142;-110.310;2023-10-31T10:06:25;23.10;99.90
41722;DHT22;27407;24.142;-110.310;2023-10-31T10:08:52;23.10;99.90
41722;DHT22;27407;24.142;-110.310;2023-10-31T10:11:22;23.10;99.90
41722;DHT22;27407;24.142;-110.310;2023-10-31T10:13:49;23.10;99.90
41722;DHT22;27407;24.142;-110.310;2023-10-31T10:16:33;23.10;99.90
41722;DHT22;27407;24.142;-110.310;2023-10-31T10:19:28;23.00;99.90
41722;DHT22;27407;24.142;-110.310;2023-10-31T10:21:57;22.90;99.90
41722;DHT22;27407;24.142;-110.310;2023-10-31T10:24:25;22.80;99.90
41722;DHT22;27407;24.142;-110.310;2023-10-31T10:26:52;22.70;99.90
41722;DHT22;27407;24.142;-110.310;2023-10-31T10:29:18;22.70;99.90
41722;DHT22;27407;24.142;-110.310;2023-10-31T10:31:45;22.70;99.90
41722;DHT22;27407;24.142;-110.310;2023-10-31T10:34:15;22.50;99.90
41722;DHT22;27407;24.142;-110.310;2023-10-31T10:36:49;22.50;99.90
41722;DHT22;27407;24.142;-110.310;2023-10-31T10:39:19;22.40;99.90
41722;DHT22;27407;24.142;-110.310;2023-10-31T10:41:54;22.40;99.90
41722;DHT22;27407;24.142;-110.310;2023-10-31T10:44:34;22.30;99.90
41722;DHT22;27407;24.142;-110.310;2023-10-31T10:47:05;22.30;99.90
41722;DHT22;27407;24.142;-110.310;2023-10-31T10:49:34;22.30;99.90
41722;DHT22;27407;24.142;-110.310;2023-10-31T10:52:17;22.30;99.90
41722;DHT22;27407;24.142;-110.310;2023-10-31T10:55:04;22.20;99.90
41722;DHT22;27407;24.142;-110.310;2023-10-31T10:58:03;22.10;99.90
41722;DHT22;27407;24.142;-110.310;2023-10-31T11:00:31;22.10;99.90
41722;DHT22;27407;24.142;-110.310;2023-10-31T11:03:00;22.10;99.90
41722;DHT22;27407;24.142;-110.310;2023-10-31T11:05:27;22.00;99.90
41722;DHT22;27407;24.142;-110.310;2023-10-31T11:07:56;22.00;99.90
41722;DHT22;27407;24.142;-110.310;2023-10-31T11:10:23;21.90;99.90
41722;DHT22;27407;24.142;-110.310;2023-10-31T11:12:50;21.80;99.90
41722;DHT22;27407;24.142;-110.310;2023-10-31T11:15:17;21.70;99.90
41722;DHT22;27407;24.142;-110.310;2023-10-31T11:17:45;21.60;99.90
41722;DHT22;27407;24.142;-110.310;2023-10-31T11:20:14;21.60;99.90
41722;DHT22;27407;24.142;-110.310;2023-10-31T11:22:43;21.60;99.90
41722;DHT22;27407;24.142;-110.310;2023-10-31T11:25:29;21.70;99.90
41722;DHT22;27407;24.142;-110.310;2023-10-31T11:28:19;21.50;99.90
41722;DHT22;27407;24.142;-110.310;2023-10-31T11:30:48;21.60;99.90
41722;DHT22;27407;24.142;-110.310;2023-10-31T11:33:19;21.60;99.90
41722;DHT22;27407;24.142;-110.310;2023-10-31T11:36:03;21.60;99.90
41722;DHT22;27407;24.142;-110.310;2023-10-31T11:38:36;21.70;99.90
41722;DHT22;27407;24.142;-110.310;2023-10-31T11:41:04;21.70;99.90
41722;DHT22;27407;24.142;-110.310;2023-10-31T11:46:39;21.50;99.90
41722;DHT22;27407;24.142;-110.310;2023-10-31T11:48:59;21.50;99.90
41722;DHT22;27407;24.142;-110.310;2023-10-31T11:51:30;21.60;99.90
41722;DHT22;27407;24.142;-110.310;2023-10-31T11:53:57;21.60;99.90
41722;DHT22;27407;24.142;-110.310;2023-10-31T11:56:24;21.50;99.90
41722;DHT22;27407;24.142;-110.310;2023-10-31T11:58:58;21.60;99.90
41722;DHT22;27407;24.142;-110.310;2023-10-31T12:01:25;21.50;99.90
41722;DHT22;27407;24.142;-110.310;2023-10-31T12:03:52;21.60;99.90
41722;DHT22;27407;24.142;-110.310;2023-10-31T12:06:19;21.60;99.90
41722;DHT22;27407;24.142;-110.310;2023-10-31T12:08:48;21.70;99.90
41722;DHT22;27407;24.142;-110.310;2023-10-31T12:11:17;21.70;99.90
41722;DHT22;27407;24.142;-110.310;2023-10-31T12:13:57;21.80;99.90
41722;DHT22;27407;24.142;-110.310;2023-10-31T12:16:28;21.80;99.90
41722;DHT22;27407;24.142;-110.310;2023-10-31T12:19:05;22.00;99.90
41722;DHT22;27407;24.142;-110.310;2023-10-31T12:21:45;22.10;99.90
41722;DHT22;27407;24.142;-110.310;2023-10-31T12:24:17;22.20;99.90
41722;DHT22;27407;24.142;-110.310;2023-10-31T12:26:44;22.20;99.90
41722;DHT22;27407;24.142;-110.310;2023-10-31T12:29:13;22.30;99.90
41722;DHT22;27407;24.142;-110.310;2023-10-31T12:31:44;22.40;99.90
41722;DHT22;27407;24.142;-110.310;2023-10-31T12:34:19;22.50;99.90
41722;DHT22;27407;24.142;-110.310;2023-10-31T12:36:47;22.50;99.90
41722;DHT22;27407;24.142;-110.310;2023-10-31T12:39:15;22.50;99.90
41722;DHT22;27407;24.142;-110.310;2023-10-31T12:41:42;22.50;99.90
41722;DHT22;27407;24.142;-110.310;2023-10-31T12:44:10;22.50;99.90
41722;DHT22;27407;24.142;-110.310;2023-10-31T12:46:42;22.60;99.90
41722;DHT22;27407;24.142;-110.310;2023-10-31T12:49:12;22.70;99.90
41722;DHT22;27407;24.142;-110.310;2023-10-31T12:52:04;22.70;99.90
41722;DHT22;27407;24.142;-110.310;2023-10-31T12:54:35;22.80;99.90
41722;DHT22;27407;24.142;-110.310;2023-10-31T12:57:03;22.80;99.90
41722;DHT22;27407;24.142;-110.310;2023-10-31T12:59:31;22.80;99.90
41722;DHT22;27407;24.142;-110.310;2023-10-31T13:01:58;22.80;99.90
41722;DHT22;27407;24.142;-110.310;2023-10-31T13:04:30;22.90;99.90
41722;DHT22;27407;24.142;-110.310;2023-10-31T13:07:04;22.90;99.90
41722;DHT22;27407;24.142;-110.310;2023-10-31T13:09:31;22.90;99.90
41722;DHT22;27407;24.142;-110.310;2023-10-31T13:12:02;23.10;99.90
41722;DHT22;27407;24.142;-110.310;2023-10-31T13:14:29;23.30;99.90
41722;DHT22;27407;24.142;-110.310;2023-10-31T13:16:56;23.20;99.90
41722;DHT22;27407;24.142;-110.310;2023-10-31T13:19:22;23.30;99.90
41722;DHT22;27407;24.142;-110.310;2023-10-31T13:21:49;23.20;99.90
41722;DHT22;27407;24.142;-110.310;2023-10-31T13:24:17;23.10;99.90
41722;DHT22;27407;24.142;-110.310;2023-10-31T13:26:45;23.10;99.90
41722;DHT22;27407;24.142;-110.310;2023-10-31T13:29:17;23.10;99.90
41722;DHT22;27407;24.142;-110.310;2023-10-31T13:31:44;23.10;99.90
41722;DHT22;27407;24.142;-110.310;2023-10-31T13:34:11;23.10;99.90
41722;DHT22;27407;24.142;-110.310;2023-10-31T13:36:37;23.10;99.90
41722;DHT22;27407;24.142;-110.310;2023-10-31T13:39:04;23.10;99.90
41722;DHT22;27407;24.142;-110.310;2023-10-31T13:41:31;23.20;99.90
41722;DHT22;27407;24.142;-110.310;2023-10-31T13:43:57;23.20;99.90
41722;DHT22;27407;24.142;-110.310;2023-10-31T13:46:24;23.30;99.90
41722;DHT22;27407;24.142;-110.310;2023-10-31T13:48:51;23.40;99.90
41722;DHT22;27407;24.142;-110.310;2023-10-31T13:51:18;23.40;99.90
41722;DHT22;27407;24.142;-110.310;2023-10-31T13:53:46;23.50;99.90
41722;DHT22;27407;24.142;-110.310;2023-10-31T13:56:16;23.50;99.90
41722;DHT22;27407;24.142;-110.310;2023-10-31T13:58:51;23.70;99.90
41722;DHT22;27407;24.142;-110.310;2023-10-31T14:01:17;23.80;99.90
41722;DHT22;27407;24.142;-110.310;2023-10-31T14:03:50;23.80;99.90
41722;DHT22;27407;24.142;-110.310;2023-10-31T14:06:17;23.90;99.90
41722;DHT22;27407;24.142;-110.310;2023-10-31T14:08:45;23.90;99.90
41722;DHT22;27407;24.142;-110.310;2023-10-31T14:11:11;24.00;99.90
41722;DHT22;27407;24.142;-110.310;2023-10-31T14:13:38;24.00;99.90
41722;DHT22;27407;24.142;-110.310;2023-10-31T14:16:07;24.10;99.90
41722;DHT22;27407;24.142;-110.310;2023-10-31T14:18:33;24.20;99.90
41722;DHT22;27407;24.142;-110.310;2023-10-31T14:21:00;24.30;99.90
41722;DHT22;27407;24.142;-110.310;2023-10-31T14:23:30;24.50;99.90
41722;DHT22;27407;24.142;-110.310;2023-10-31T14:25:57;24.60;99.90
41722;DHT22;27407;24.142;-110.310;2023-10-31T14:28:23;24.60;99.90
41722;DHT22;27407;24.142;-110.310;2023-10-31T14:30:50;24.70;99.90
41722;DHT22;27407;24.142;-110.310;2023-10-31T14:33:18;24.70;99.90
41722;DHT22;27407;24.142;-110.310;2023-10-31T14:35:45;24.90;99.90
41722;DHT22;27407;24.142;-110.310;2023-10-31T14:38:12;24.90;99.90
41722;DHT22;27407;24.142;-110.310;2023-10-31T14:40:39;25.00;99.90
41722;DHT22;27407;24.142;-110.310;2023-10-31T14:43:05;25.00;99.90
41722;DHT22;27407;24.142;-110.310;2023-10-31T14:45:32;25.10;99.90
41722;DHT22;27407;24.142;-110.310;2023-10-31T14:47:58;25.10;99.90
41722;DHT22;27407;24.142;-110.310;2023-10-31T14:50:25;25.20;99.90
41722;DHT22;27407;24.142;-110.310;2023-10-31T14:52:55;25.30;99.90
41722;DHT22;27407;24.142;-110.310;2023-10-31T14:55:22;25.40;99.90
41722;DHT22;27407;24.142;-110.310;2023-10-31T14:57:49;25.50;99.90
41722;DHT22;27407;24.142;-110.310;2023-10-31T15:00:16;25.60;99.90
41722;DHT22;27407;24.142;-110.310;2023-10-31T15:02:43;25.80;99.90
41722;DHT22;27407;24.142;-110.310;2023-10-31T15:05:09;26.00;99.90
41722;DHT22;27407;24.142;-110.310;2023-10-31T15:07:36;25.90;99.90
41722;DHT22;27407;24.142;-110.310;2023-10-31T15:10:04;25.90;99.90
41722;DHT22;27407;24.142;-110.310;2023-10-31T15:12:30;26.00;99.90
41722;DHT22;27407;24.142;-110.310;2023-10-31T15:14:57;26.10;99.90